WetterOnline ( https://www.wetteronline.de )

Wetter aktuell Klippeneck

Aktuelles Wetter: Klippeneck (975m)

6-stündlich | Neueste Meldungen
Ortszeit Temperatur Wetter
Mo, 15.04. 20:00 10.6° C bedeckt
Mo, 15.04. 14:00 13.9° C bewölkt
Mo, 15.04. 8:00 10.6° C wolkig
Mo, 15.04. 2:00 14.9° C wolkig
So, 14.04. 20:00 18.4° C wolkig
So, 14.04. 14:00 21.3° C leicht bewölkt
So, 14.04. 8:00 15.3° C fast wolkenlos
So, 14.04. 2:00 16.5° C wolkig
Ortszeit Temperatur Wetter
Mo, 15.04. 20:10 10.2° C bewölkt
Mo, 15.04. 20:00 10.6° C bedeckt
Mo, 15.04. 19:50 10.6° C bedeckt
Mo, 15.04. 19:40 10.7° C bedeckt
Mo, 15.04. 19:30 11.0° C bewölkt
Mo, 15.04. 19:20 11.0° C bewölkt
Mo, 15.04. 19:00 11.7° C bewölkt
Mo, 15.04. 18:30 12.5° C wolkig
Mo, 15.04. 18:00 12.7° C wolkig
Mo, 15.04. 17:30 12.5° C wolkig
Ortszeit Relative Feuchte Sichtweite
Mo, 15.04. 20:00 50% 50 km
Mo, 15.04. 14:00 64% 30 km
Mo, 15.04. 8:00 89% 35 km
Mo, 15.04. 2:00 55% >70 km
So, 14.04. 20:00 44% 55 km
So, 14.04. 14:00 30% 35 km
So, 14.04. 8:00 50% 50 km
So, 14.04. 2:00 39% 65 km
Ortszeit Relative Feuchte Sichtweite
Mo, 15.04. 20:10 53% -
Mo, 15.04. 20:00 50% 50 km
Mo, 15.04. 19:50 50% -
Mo, 15.04. 19:40 51% -
Mo, 15.04. 19:30 51% 45 km
Mo, 15.04. 19:20 51% -
Mo, 15.04. 19:00 49% 50 km
Mo, 15.04. 18:30 45% 50 km
Mo, 15.04. 18:00 50% 40 km
Mo, 15.04. 17:30 56% 55 km
Ortszeit Niederschlagsmenge Niederschlagsart
Mo, 15.04. 20:00 2 l/m2 in 12 Std. Sprühregen
Mo, 15.04. 14:00 2 l/m2 in 6 Std. Regen
Mo, 15.04. 8:00 0.4 l/m2 in 12 Std. Regen
Mo, 15.04. 2:00 0.0 l/m2 in 6 Std. -
So, 14.04. 20:00 0.0 l/m2 in 12 Std. -
So, 14.04. 14:00 0.0 l/m2 in 6 Std. -
So, 14.04. 8:00 0.0 l/m2 in 12 Std. -
So, 14.04. 2:00 0.0 l/m2 in 6 Std. -
Ortszeit Niederschlagsmenge Niederschlagsart
Mo, 15.04. 20:10 keine Meldung -
Mo, 15.04. 20:00 0.0 l/m2 in 1 Std. Sprühregen
Mo, 15.04. 19:50 keine Meldung -
Mo, 15.04. 19:40 keine Meldung -
Mo, 15.04. 19:30 0.0 l/m2 in 30 Min -
Mo, 15.04. 19:20 keine Meldung -
Mo, 15.04. 19:00 0.0 l/m2 in 1 Std. -
Mo, 15.04. 18:30 0.0 l/m2 in 30 Min -
Mo, 15.04. 18:00 0.0 l/m2 in 1 Std. -
Mo, 15.04. 17:30 0.0 l/m2 in 30 Min -
Ortszeit Stärke Spitze Richtung
km/h Bft. km/h Grad Sektor
Mo, 15.04. 20:00 41 6 91 250° W
Mo, 15.04. 14:00 33 5 61 250° W
Mo, 15.04. 8:00 17 3 41 260° W
Mo, 15.04. 2:00 25 4 40 240° SW
So, 14.04. 20:00 17 3 41 270° W
So, 14.04. 14:00 22 4 39 280° W
So, 14.04. 8:00 13 3 37 230° SW
So, 14.04. 2:00 17 3 28 210° SW
Ortszeit Stärke Spitze Richtung
km/h Bft. km/h Grad Sektor
Mo, 15.04. 20:10 43 6 - 260° W
Mo, 15.04. 20:00 41 6 87 250° W
Mo, 15.04. 19:50 41 6 - 250° W
Mo, 15.04. 19:40 47 6 - 250° W
Mo, 15.04. 19:30 47 6 86 260° W
Mo, 15.04. 19:20 47 6 - 260° W
Mo, 15.04. 19:00 40 6 90 270° W
Mo, 15.04. 18:30 43 6 90 260° W
Mo, 15.04. 18:00 40 6 79 260° W
Mo, 15.04. 17:30 44 6 80 260° W
Ortszeit Untergrenze Bedeckung Gattung
total tief tief mittel hoch
Mo, 15.04. 20:00 1350 m 8/8 8/8 - - -
Mo, 15.04. 14:00 840 m 7/8 7/8 - - -
Mo, 15.04. 8:00 810 m 8/8 2/8 - - -
Mo, 15.04. 2:00 1800 m 8/8 3/8 - - -
So, 14.04. 20:00 7200 m 8/8 0/8 - - -
So, 14.04. 14:00 7500 m 8/8 0/8 - - -
So, 14.04. 8:00 10500 m 1/8 0/8 - - -
So, 14.04. 2:00 7200 m 8/8 0/8 - - -
Ortszeit Bedeckungsgrad in Achtel und Wolkenuntergrenze
Mo, 15.04. 20:10 7
Mo, 15.04. 20:00 7(1350m) 7(1500m) 8(1800m)
Mo, 15.04. 19:50 7(1350m) 7(1500m) 8(1800m)
Mo, 15.04. 19:40 8
Mo, 15.04. 19:30 3(1350m) 7(1800m) 7(2100m)
Mo, 15.04. 19:20 3(1350m) 7(1800m) 7(2100m)
Mo, 15.04. 19:00 2(1500m) 7(2100m) 7(7800m)
Mo, 15.04. 18:30 2(1440m) 4(1500m) 6(8100m)
Mo, 15.04. 18:00 2(1170m) 4(1440m) 6(1500m)
Mo, 15.04. 17:30 2(1140m) 4(1410m) 6(1500m)
Ortszeit Stationsdruck (hPa) Tendenz (hPa in 3 Std.)
Mo, 15.04. 20:00 896 - 0,4
Mo, 15.04. 14:00 900 - 2,9
Mo, 15.04. 8:00 903 - 1,2
Mo, 15.04. 2:00 905 - 1,9
So, 14.04. 20:00 908 - 1,4
So, 14.04. 14:00 912 - 1,0
So, 14.04. 8:00 912 - 0,3
So, 14.04. 2:00 914 - 1,0
Ortszeit Stationsdruck (hPa) Tendenz (hPa in 3 Std.)
Mo, 15.04. 20:10 896 keine Meldung
Mo, 15.04. 20:00 896 - 0,4
Mo, 15.04. 19:50 896 keine Meldung
Mo, 15.04. 19:40 896 keine Meldung
Mo, 15.04. 19:30 896 - 0,6
Mo, 15.04. 19:20 896 keine Meldung
Mo, 15.04. 19:00 896 - 1,2
Mo, 15.04. 18:30 896 - 1,7
Mo, 15.04. 18:00 896 - 2,4
Mo, 15.04. 17:30 896 - 2,8
Ortszeit Schneehöhe (cm)
Mo, 15.04. 20:00 0
Mo, 15.04. 14:00 0
Mo, 15.04. 8:00 0
Mo, 15.04. 2:00 0
So, 14.04. 20:00 0
So, 14.04. 14:00 0
So, 14.04. 8:00 0
So, 14.04. 2:00 0
Ortszeit Schneehöhe (cm)
Mo, 15.04. 20:10 -
Mo, 15.04. 20:00 0
Mo, 15.04. 19:50 0
Mo, 15.04. 19:40 -
Mo, 15.04. 19:30 0
Mo, 15.04. 19:20 0
Mo, 15.04. 19:00 0
Mo, 15.04. 18:30 0
Mo, 15.04. 18:00 0
Mo, 15.04. 17:30 0
Link zu dieser Seite / Seite empfehlen

Das Wetter in ...